createdAt,value
2023-04-16T00:01:37.390Z,11.57
2023-04-16T00:04:06.792Z,11.60
2023-04-16T00:06:33.437Z,11.73
2023-04-16T00:08:59.983Z,11.82
2023-04-16T00:11:26.483Z,12.07
2023-04-16T00:13:52.934Z,12.40
2023-04-16T00:16:19.493Z,11.95
2023-04-16T00:18:46.495Z,12.48
2023-04-16T00:21:13.002Z,12.30
2023-04-16T00:23:39.468Z,12.88
2023-04-16T00:26:05.976Z,12.35
2023-04-16T00:28:32.429Z,12.85
2023-04-16T00:30:59.450Z,13.23
2023-04-16T00:33:26.150Z,13.82
2023-04-16T00:35:52.754Z,14.70
2023-04-16T00:38:19.265Z,14.40
2023-04-16T00:40:45.838Z,14.18
2023-04-16T00:43:12.370Z,13.32
2023-04-16T00:45:38.908Z,14.35
2023-04-16T00:48:05.933Z,14.15
2023-04-16T00:50:33.234Z,14.40
2023-04-16T00:52:59.708Z,13.98
2023-04-16T00:55:26.139Z,14.23
2023-04-16T00:57:53.170Z,14.70
2023-04-16T01:00:20.361Z,14.80
2023-04-16T01:02:47.024Z,14.63
2023-04-16T01:05:13.587Z,14.70
2023-04-16T01:07:40.121Z,14.35
2023-04-16T01:10:07.188Z,14.07
2023-04-16T01:12:33.725Z,13.68
2023-04-16T01:15:00.656Z,14.13
2023-04-16T01:17:27.160Z,14.48
2023-04-16T01:19:53.727Z,13.55
2023-04-16T01:22:20.348Z,15.02
2023-04-16T01:24:46.819Z,14.35
2023-04-16T01:27:13.323Z,14.57
2023-04-16T01:29:39.819Z,14.77
2023-04-16T01:32:07.146Z,13.95
2023-04-16T01:34:36.270Z,15.07
2023-04-16T01:37:03.903Z,14.55
2023-04-16T01:39:30.419Z,13.35
2023-04-16T01:41:57.674Z,13.55
2023-04-16T01:44:25.430Z,13.15
2023-04-16T01:46:51.977Z,13.52
2023-04-16T01:49:18.526Z,12.98
2023-04-16T01:51:45.023Z,13.15
2023-04-16T01:54:11.546Z,14.77
2023-04-16T01:56:39.522Z,15.38
2023-04-16T01:59:06.158Z,15.57
2023-04-16T02:01:37.891Z,15.73
2023-04-16T02:04:05.283Z,15.05
2023-04-16T02:06:32.062Z,15.05
2023-04-16T02:08:58.513Z,15.38
2023-04-16T02:11:26.307Z,14.57
2023-04-16T02:13:53.126Z,15.27
2023-04-16T02:16:20.486Z,14.70
2023-04-16T02:18:52.896Z,14.55
2023-04-16T02:21:21.472Z,15.43
2023-04-16T02:23:51.494Z,14.15
2023-04-16T02:26:21.496Z,15.18
2023-04-16T02:28:49.187Z,14.98
2023-04-16T02:31:19.525Z,14.73
2023-04-16T02:33:47.808Z,15.10
2023-04-16T02:36:14.832Z,14.35
2023-04-16T02:38:41.492Z,13.82
2023-04-16T02:41:08.483Z,15.18
2023-04-16T02:43:34.969Z,15.43
2023-04-16T02:46:02.277Z,13.90
2023-04-16T02:48:28.852Z,13.90
2023-04-16T02:50:55.670Z,14.93
2023-04-16T02:53:22.186Z,12.90
2023-04-16T02:55:52.859Z,14.20
2023-04-16T02:58:20.343Z,13.57
2023-04-16T03:00:46.993Z,13.60
2023-04-16T03:03:13.952Z,13.77
2023-04-16T03:05:40.813Z,13.80
2023-04-16T03:08:07.738Z,14.15
2023-04-16T03:10:35.387Z,14.15
2023-04-16T03:13:02.138Z,14.30
2023-04-16T03:15:28.941Z,14.70
2023-04-16T03:17:55.692Z,13.57
2023-04-16T03:20:22.246Z,13.75
2023-04-16T03:22:49.605Z,13.45
2023-04-16T03:25:16.425Z,14.13
2023-04-16T03:27:42.965Z,14.18
2023-04-16T03:30:11.442Z,14.15
2023-04-16T03:32:38.403Z,15.32
2023-04-16T03:35:06.092Z,15.23
2023-04-16T03:37:33.387Z,14.23
2023-04-16T03:40:00.047Z,14.15
2023-04-16T03:42:27.019Z,15.13
2023-04-16T03:44:53.761Z,14.20
2023-04-16T03:47:21.683Z,14.85
2023-04-16T03:49:49.552Z,15.15
2023-04-16T03:52:16.382Z,15.77
2023-04-16T03:54:42.872Z,15.15
2023-04-16T03:57:24.220Z,14.75
2023-04-16T03:59:52.455Z,15.25
2023-04-16T04:02:19.632Z,14.75
2023-04-16T04:04:46.440Z,15.20
2023-04-16T04:07:13.017Z,14.82
2023-04-16T04:09:39.596Z,14.00
2023-04-16T04:12:06.185Z,13.82
2023-04-16T04:14:33.514Z,14.15
2023-04-16T04:17:00.025Z,14.88
2023-04-16T04:19:26.497Z,15.07
2023-04-16T04:21:52.982Z,14.82
2023-04-16T04:24:19.539Z,14.30
2023-04-16T04:26:46.115Z,14.35
2023-04-16T04:29:13.940Z,14.07
2023-04-16T04:31:40.887Z,13.45
2023-04-16T04:34:07.728Z,14.02
2023-04-16T04:36:34.447Z,14.15
2023-04-16T04:39:01.431Z,13.77
2023-04-16T04:41:28.126Z,13.75
2023-04-16T04:43:54.550Z,13.23
2023-04-16T04:46:21.292Z,13.32
2023-04-16T04:48:47.912Z,13.38
2023-04-16T04:51:36.472Z,12.38
2023-04-16T04:54:03.445Z,13.40
2023-04-16T04:56:30.004Z,12.52
2023-04-16T04:58:56.664Z,12.98
2023-04-16T05:01:23.586Z,12.98
2023-04-16T05:03:50.372Z,12.95
2023-04-16T05:06:17.014Z,12.35
2023-04-16T05:08:43.500Z,12.55
2023-04-16T05:11:09.966Z,13.32
2023-04-16T05:13:36.467Z,12.95
2023-04-16T05:16:03.036Z,12.02
2023-04-16T05:18:29.645Z,12.38
2023-04-16T05:20:56.101Z,11.98
2023-04-16T05:23:22.514Z,11.85
2023-04-16T05:25:49.004Z,12.38
2023-04-16T05:28:15.510Z,11.60
2023-04-16T05:30:42.036Z,11.73
2023-04-16T05:33:08.584Z,11.32
2023-04-16T05:35:35.271Z,11.43
2023-04-16T05:38:01.751Z,10.88
2023-04-16T05:40:28.711Z,11.23
2023-04-16T05:42:55.173Z,11.15
2023-04-16T05:45:21.737Z,11.00
2023-04-16T05:47:48.183Z,10.73
2023-04-16T05:50:14.892Z,10.13
2023-04-16T05:52:41.356Z,11.20
2023-04-16T05:55:08.102Z,11.18
2023-04-16T05:57:34.559Z,10.98
2023-04-16T06:00:01.069Z,10.32
2023-04-16T06:02:27.797Z,10.55
2023-04-16T06:04:54.382Z,11.15
2023-04-16T06:07:20.971Z,8.98
2023-04-16T06:09:47.476Z,9.65
2023-04-16T06:12:13.990Z,9.73
2023-04-16T06:14:40.616Z,10.05
2023-04-16T06:17:07.060Z,9.68
2023-04-16T06:19:33.523Z,9.75
2023-04-16T06:21:59.999Z,9.57
2023-04-16T06:24:26.555Z,10.02
2023-04-16T06:26:54.258Z,10.50
2023-04-16T06:29:22.536Z,10.40
2023-04-16T06:31:52.344Z,10.40
2023-04-16T06:34:18.889Z,9.82
2023-04-16T06:36:45.704Z,9.75
2023-04-16T06:39:12.294Z,9.80
2023-04-16T06:41:38.854Z,9.98
2023-04-16T06:44:05.495Z,10.73
2023-04-16T06:46:32.204Z,10.32
2023-04-16T06:48:58.734Z,10.82
2023-04-16T06:51:26.667Z,11.75
2023-04-16T06:53:53.160Z,10.82
2023-04-16T06:56:19.717Z,10.60
2023-04-16T06:58:46.220Z,11.27
2023-04-16T07:01:12.985Z,11.43
2023-04-16T07:03:39.779Z,11.07
2023-04-16T07:06:06.929Z,11.50
2023-04-16T07:08:33.415Z,12.43
2023-04-16T07:10:59.930Z,11.77
2023-04-16T07:13:26.593Z,12.43
2023-04-16T07:15:53.386Z,11.48
2023-04-16T07:18:20.841Z,11.20
2023-04-16T07:20:48.001Z,10.68
2023-04-16T07:23:14.469Z,10.90
2023-04-16T07:25:42.475Z,10.63
2023-04-16T07:28:11.884Z,11.27
2023-04-16T07:30:38.425Z,10.77
2023-04-16T07:33:05.205Z,10.93
2023-04-16T07:35:31.961Z,13.15
2023-04-16T07:38:01.347Z,14.32
2023-04-16T07:40:27.815Z,12.10
2023-04-16T07:42:55.169Z,11.75
2023-04-16T07:45:21.920Z,10.25
2023-04-16T07:47:51.235Z,11.20
2023-04-16T07:50:19.439Z,11.23
2023-04-16T07:52:47.187Z,11.73
2023-04-16T07:55:13.684Z,11.50
2023-04-16T07:57:40.986Z,11.60
2023-04-16T08:00:08.563Z,12.20
2023-04-16T08:02:44.498Z,12.35
2023-04-16T08:05:12.502Z,11.40
2023-04-16T08:07:39.159Z,11.93
2023-04-16T08:10:09.056Z,12.13
2023-04-16T08:12:35.910Z,12.25
2023-04-16T08:15:02.458Z,11.70
2023-04-16T08:17:29.906Z,12.70
2023-04-16T08:19:56.446Z,11.68
2023-04-16T08:22:23.047Z,10.82
2023-04-16T08:24:49.527Z,11.48
2023-04-16T08:27:19.975Z,10.60
2023-04-16T08:29:49.939Z,11.35
2023-04-16T08:32:19.333Z,11.35
2023-04-16T08:34:46.236Z,11.30
2023-04-16T08:37:15.517Z,10.70
2023-04-16T08:39:42.073Z,10.68
2023-04-16T08:42:30.740Z,11.48
2023-04-16T08:45:17.693Z,10.82
2023-04-16T08:47:53.660Z,11.38
2023-04-16T08:50:24.827Z,12.10
2023-04-16T08:52:53.375Z,12.32
2023-04-16T08:55:25.501Z,11.37
2023-04-16T08:57:54.707Z,11.48
2023-04-16T09:00:21.519Z,11.38
2023-04-16T09:02:48.591Z,11.35
2023-04-16T09:05:20.687Z,11.45
2023-04-16T09:07:48.327Z,10.15
2023-04-16T09:10:15.254Z,9.95
2023-04-16T09:12:43.706Z,10.25
2023-04-16T09:15:11.562Z,10.88
2023-04-16T09:17:38.677Z,10.88
2023-04-16T09:20:08.672Z,10.18
2023-04-16T09:22:36.017Z,10.00
2023-04-16T09:25:02.595Z,10.85
2023-04-16T09:27:30.205Z,11.00
2023-04-16T09:29:56.727Z,10.23
2023-04-16T09:32:27.793Z,10.73
2023-04-16T09:34:55.598Z,10.38
2023-04-16T09:37:22.091Z,9.48
2023-04-16T09:39:59.253Z,8.73
2023-04-16T09:42:28.640Z,9.48
2023-04-16T09:44:57.863Z,9.68
2023-04-16T09:47:27.279Z,9.77
2023-04-16T09:49:58.790Z,11.00
2023-04-16T09:52:25.822Z,11.70
2023-04-16T09:54:53.370Z,11.50
2023-04-16T09:57:24.567Z,9.77
2023-04-16T09:59:57.730Z,9.43
2023-04-16T10:02:31.066Z,9.90
2023-04-16T10:04:57.964Z,9.77
2023-04-16T10:07:28.954Z,9.90
2023-04-16T10:09:56.020Z,10.70
2023-04-16T10:12:22.508Z,10.65
2023-04-16T10:14:50.438Z,11.52
2023-04-16T10:17:17.267Z,11.27
2023-04-16T10:19:43.849Z,11.40
2023-04-16T10:22:11.165Z,11.48
2023-04-16T10:24:38.304Z,11.15
2023-04-16T10:27:04.784Z,11.57
2023-04-16T10:29:31.644Z,12.45
2023-04-16T10:31:58.570Z,11.43
2023-04-16T10:34:25.784Z,12.70
2023-04-16T10:36:54.032Z,11.65
2023-04-16T10:39:22.672Z,11.15
2023-04-16T10:41:50.499Z,12.77
2023-04-16T10:44:20.397Z,11.82
2023-04-16T10:46:51.625Z,12.88
2023-04-16T10:49:25.297Z,12.50
2023-04-16T10:52:00.084Z,11.55
2023-04-16T10:54:31.169Z,11.60
2023-04-16T10:57:00.751Z,12.30
2023-04-16T10:59:31.299Z,11.50
2023-04-16T11:01:59.974Z,11.52
2023-04-16T11:04:28.928Z,11.37
2023-04-16T11:07:17.012Z,13.23
2023-04-16T11:09:56.323Z,11.77
2023-04-16T11:12:29.132Z,11.52
2023-04-16T11:15:08.547Z,12.43
2023-04-16T11:17:45.617Z,11.20
2023-04-16T11:20:19.080Z,10.95
2023-04-16T11:22:47.996Z,10.95
2023-04-16T11:25:23.082Z,11.00
2023-04-16T11:27:50.641Z,10.98
2023-04-16T11:30:20.647Z,11.10
2023-04-16T11:32:47.290Z,11.63
2023-04-16T11:35:16.264Z,10.82
2023-04-16T11:37:43.017Z,9.77
2023-04-16T11:40:10.240Z,10.45
2023-04-16T11:42:37.535Z,9.82
2023-04-16T11:45:04.952Z,10.98
2023-04-16T11:47:31.972Z,11.13
2023-04-16T11:49:58.895Z,11.20
2023-04-16T11:52:33.211Z,11.75
2023-04-16T11:54:59.850Z,12.32
2023-04-16T11:57:30.655Z,11.85
2023-04-16T12:00:01.616Z,12.05
2023-04-16T12:02:43.065Z,12.15
2023-04-16T12:05:31.946Z,14.20
2023-04-16T12:07:59.515Z,13.98
2023-04-16T12:10:27.092Z,12.43
2023-04-16T12:12:53.746Z,12.57
2023-04-16T12:15:20.308Z,13.57
2023-04-16T12:17:47.836Z,13.05
2023-04-16T12:20:15.677Z,14.32
2023-04-16T12:22:47.581Z,13.57
2023-04-16T12:25:16.003Z,13.82
2023-04-16T12:27:43.163Z,14.20
2023-04-16T12:30:10.046Z,14.23
2023-04-16T12:32:36.704Z,14.63
2023-04-16T12:35:03.437Z,14.10
2023-04-16T12:37:30.007Z,14.40
2023-04-16T12:39:56.614Z,15.77
2023-04-16T12:42:23.151Z,16.05
2023-04-16T12:44:49.855Z,17.20
2023-04-16T12:47:16.489Z,17.17
2023-04-16T12:49:44.480Z,15.25
2023-04-16T12:52:11.120Z,16.25
2023-04-16T12:54:37.744Z,16.95
2023-04-16T12:57:04.344Z,17.80
2023-04-16T12:59:30.858Z,15.38
2023-04-16T13:01:57.575Z,16.20
2023-04-16T13:04:25.678Z,16.35
2023-04-16T13:06:52.700Z,15.27
2023-04-16T13:09:20.211Z,17.08
2023-04-16T13:11:46.892Z,16.38
2023-04-16T13:14:13.419Z,16.45
2023-04-16T13:16:39.933Z,15.85
2023-04-16T13:19:06.593Z,21.50
2023-04-16T13:21:34.212Z,28.95
2023-04-16T13:24:00.712Z,20.95
2023-04-16T13:26:27.393Z,17.05
2023-04-16T13:28:54.809Z,16.85
2023-04-16T13:31:22.347Z,19.00
2023-04-16T13:33:50.280Z,16.00
2023-04-16T13:36:16.932Z,17.38
2023-04-16T13:38:43.817Z,16.40
2023-04-16T13:41:10.462Z,15.32
2023-04-16T13:43:37.262Z,15.18
2023-04-16T13:46:03.917Z,15.75
2023-04-16T13:48:30.779Z,17.00
2023-04-16T13:50:57.320Z,17.05
2023-04-16T13:53:23.946Z,24.30
2023-04-16T13:55:51.037Z,19.02
2023-04-16T13:58:20.897Z,17.20
2023-04-16T14:00:49.397Z,16.70
2023-04-16T14:03:18.403Z,16.80
2023-04-16T14:05:45.676Z,16.05
2023-04-16T14:08:16.492Z,16.55
2023-04-16T14:10:43.749Z,16.77
2023-04-16T14:13:11.096Z,17.63
2023-04-16T14:15:38.086Z,18.50
2023-04-16T14:18:05.060Z,17.88
2023-04-16T14:20:31.735Z,17.38
2023-04-16T14:22:58.659Z,17.38
2023-04-16T14:25:26.699Z,17.58
2023-04-16T14:27:53.436Z,18.85
2023-04-16T14:30:20.145Z,18.58
2023-04-16T14:32:46.778Z,18.40
2023-04-16T14:35:13.328Z,17.80
2023-04-16T14:37:40.280Z,18.55
2023-04-16T14:40:08.934Z,24.65
2023-04-16T14:42:36.647Z,22.75
2023-04-16T14:45:06.524Z,22.08
2023-04-16T14:47:37.791Z,18.65
2023-04-16T14:50:25.277Z,18.42
2023-04-16T14:52:53.730Z,17.50
2023-04-16T14:55:21.357Z,17.23
2023-04-16T14:57:48.013Z,17.27
2023-04-16T15:00:18.687Z,17.83
2023-04-16T15:02:46.201Z,18.00
2023-04-16T15:05:13.041Z,18.80
2023-04-16T15:07:39.734Z,18.90
2023-04-16T15:10:10.802Z,18.90
2023-04-16T15:12:38.063Z,19.58
2023-04-16T15:15:08.105Z,19.67
2023-04-16T15:17:34.798Z,20.05
2023-04-16T15:20:10.575Z,18.80
2023-04-16T15:22:37.337Z,19.83
2023-04-16T15:25:05.338Z,19.13
2023-04-16T15:27:32.012Z,19.80
2023-04-16T15:29:58.590Z,18.83
2023-04-16T15:32:25.402Z,19.52
2023-04-16T15:34:52.100Z,19.95
2023-04-16T15:37:18.648Z,20.23
2023-04-16T15:39:45.350Z,20.48
2023-04-16T15:42:11.992Z,21.52
2023-04-16T15:44:38.652Z,19.48
2023-04-16T15:47:06.471Z,21.33
2023-04-16T15:49:33.101Z,20.55
2023-04-16T15:52:00.394Z,21.92
2023-04-16T15:54:27.236Z,21.80
2023-04-16T15:56:53.879Z,21.88
2023-04-16T15:59:20.625Z,22.20
2023-04-16T16:01:47.183Z,21.98
2023-04-16T16:04:13.940Z,21.00
2023-04-16T16:06:41.049Z,23.02
2023-04-16T16:09:08.119Z,20.50
2023-04-16T16:11:38.422Z,22.67
2023-04-16T16:14:05.162Z,25.52
2023-04-16T16:16:32.800Z,23.48
2023-04-16T16:18:59.534Z,23.83
2023-04-16T16:21:30.380Z,23.42
2023-04-16T16:23:57.905Z,20.40
2023-04-16T16:26:24.611Z,22.23
2023-04-16T16:28:51.206Z,27.83
2023-04-16T16:31:17.897Z,21.75
2023-04-16T16:33:44.544Z,22.83
2023-04-16T16:36:11.722Z,23.75
2023-04-16T16:38:40.021Z,22.60
2023-04-16T16:41:07.393Z,23.60
2023-04-16T16:43:35.885Z,21.42
2023-04-16T16:46:02.523Z,22.40
2023-04-16T16:48:29.200Z,21.08
2023-04-16T16:50:56.072Z,20.30
2023-04-16T16:53:22.706Z,20.55
2023-04-16T16:55:49.315Z,20.23
2023-04-16T16:58:16.300Z,20.13
2023-04-16T17:00:43.715Z,20.58
2023-04-16T17:03:16.481Z,20.65
2023-04-16T17:05:43.159Z,20.33
2023-04-16T17:08:27.478Z,20.30
2023-04-16T17:11:13.688Z,19.77
2023-04-16T17:13:56.444Z,19.23
2023-04-16T17:16:28.178Z,20.67
2023-04-16T17:18:55.864Z,21.83
2023-04-16T17:21:22.513Z,23.70
2023-04-16T17:23:49.237Z,23.02
2023-04-16T17:26:19.129Z,23.65
2023-04-16T17:28:45.866Z,22.02
2023-04-16T17:31:12.828Z,23.90
2023-04-16T17:33:39.524Z,22.67
2023-04-16T17:36:07.448Z,22.33
2023-04-16T17:38:34.662Z,20.45
2023-04-16T17:41:01.668Z,20.60
2023-04-16T17:43:28.600Z,21.13
2023-04-16T17:45:55.665Z,20.52
2023-04-16T17:48:22.396Z,20.58
2023-04-16T17:50:49.870Z,22.65
2023-04-16T17:53:16.691Z,23.80
2023-04-16T17:55:55.974Z,25.08
2023-04-16T17:58:26.772Z,25.27
2023-04-16T18:00:53.529Z,24.20
2023-04-16T18:03:22.074Z,25.38
2023-04-16T18:05:49.519Z,23.50
2023-04-16T18:08:16.277Z,23.73
2023-04-16T18:10:43.464Z,22.33
2023-04-16T18:13:10.238Z,25.58
2023-04-16T18:15:41.566Z,26.83
2023-04-16T18:18:11.152Z,27.83
2023-04-16T18:20:37.827Z,28.45
2023-04-16T18:23:04.627Z,29.55
2023-04-16T18:25:34.942Z,37.05
2023-04-16T18:28:03.696Z,34.10
2023-04-16T18:30:30.672Z,35.65
2023-04-16T18:33:19.473Z,34.30
2023-04-16T18:35:44.205Z,39.65
2023-04-16T18:38:13.936Z,33.30
2023-04-16T18:40:41.645Z,31.75
2023-04-16T18:43:14.147Z,30.38
2023-04-16T18:45:51.288Z,31.05
2023-04-16T18:51:57.392Z,46.03
2023-04-16T18:54:25.438Z,34.05
2023-04-16T18:59:21.496Z,51.47
2023-04-16T19:01:48.292Z,39.92
2023-04-16T19:04:15.246Z,43.75
2023-04-16T19:06:43.352Z,40.67
2023-04-16T19:09:11.557Z,34.78
2023-04-16T19:11:38.546Z,26.48
2023-04-16T19:14:05.832Z,28.70
2023-04-16T19:16:32.535Z,31.58
2023-04-16T19:18:59.539Z,35.47
2023-04-16T19:21:26.148Z,33.30
2023-04-16T19:23:52.862Z,30.83
2023-04-16T19:26:19.540Z,28.25
2023-04-16T19:28:46.231Z,29.60
2023-04-16T19:31:13.010Z,26.75
2023-04-16T19:33:44.986Z,25.08
2023-04-16T19:36:11.684Z,24.88
2023-04-16T19:38:38.552Z,24.15
2023-04-16T19:41:07.078Z,31.65
2023-04-16T19:43:33.655Z,35.05
2023-04-16T19:46:00.389Z,58.05
2023-04-16T19:48:27.137Z,47.70
2023-04-16T19:50:53.796Z,52.90
2023-04-16T19:53:21.436Z,54.33
2023-04-16T19:55:50.779Z,39.65
2023-04-16T19:58:17.446Z,51.72
2023-04-16T20:00:44.140Z,52.05
2023-04-16T20:03:14.121Z,78.50
2023-04-16T20:05:40.885Z,58.17
2023-04-16T20:08:07.553Z,72.93
2023-04-16T20:10:34.431Z,38.08
2023-04-16T20:13:03.779Z,28.63
2023-04-16T20:15:30.648Z,26.27
2023-04-16T20:17:57.407Z,31.00
2023-04-16T20:20:24.079Z,31.17
2023-04-16T20:22:50.862Z,29.13
2023-04-16T20:25:19.278Z,24.92
2023-04-16T20:27:46.231Z,23.50
2023-04-16T20:30:38.727Z,23.67
2023-04-16T20:33:06.810Z,22.77
2023-04-16T20:35:34.158Z,22.17
2023-04-16T20:38:01.101Z,22.95
2023-04-16T20:40:30.642Z,22.63
2023-04-16T20:45:38.304Z,21.65
2023-04-16T20:48:05.437Z,21.98
2023-04-16T20:50:32.065Z,22.15
2023-04-16T20:52:58.741Z,20.73
2023-04-16T20:55:28.521Z,20.95
2023-04-16T20:57:55.181Z,21.45
2023-04-16T21:00:22.342Z,20.48
2023-04-16T21:02:48.979Z,20.48
2023-04-16T21:05:16.276Z,20.40
2023-04-16T21:07:43.137Z,22.13
2023-04-16T21:10:10.685Z,20.55
2023-04-16T21:12:37.321Z,21.42
2023-04-16T21:15:04.758Z,20.10
2023-04-16T21:17:31.746Z,21.05
2023-04-16T21:19:58.485Z,22.02
2023-04-16T21:22:25.114Z,21.75
2023-04-16T21:24:51.572Z,21.13
2023-04-16T21:27:18.110Z,22.20
2023-04-16T21:29:44.666Z,21.27
2023-04-16T21:32:11.258Z,20.70
2023-04-16T21:34:37.726Z,22.25
2023-04-16T21:37:04.305Z,22.77
2023-04-16T21:39:31.140Z,23.70
2023-04-16T21:41:58.018Z,24.30
2023-04-16T21:44:24.531Z,23.48
2023-04-16T21:46:51.181Z,22.88
2023-04-16T21:49:17.824Z,22.75
2023-04-16T21:51:46.074Z,23.38
2023-04-16T21:54:13.071Z,22.30
2023-04-16T21:56:39.544Z,21.42
2023-04-16T21:59:06.356Z,21.00
2023-04-16T22:01:33.134Z,21.48
2023-04-16T22:03:59.944Z,20.13
2023-04-16T22:06:27.123Z,21.10
2023-04-16T22:08:53.720Z,19.23
2023-04-16T22:11:20.704Z,19.38
2023-04-16T22:13:47.531Z,18.15
2023-04-16T22:16:14.332Z,17.33
2023-04-16T22:18:41.221Z,17.98
2023-04-16T22:21:07.809Z,18.73
2023-04-16T22:23:34.387Z,17.05
2023-04-16T22:26:02.490Z,17.17
2023-04-16T22:28:28.934Z,16.85
2023-04-16T22:30:56.401Z,16.42
2023-04-16T22:33:22.886Z,15.60
2023-04-16T22:35:49.338Z,16.63
2023-04-16T22:38:16.498Z,15.55
2023-04-16T22:40:43.024Z,16.08
2023-04-16T22:43:09.546Z,17.02
2023-04-16T22:45:37.396Z,15.88
2023-04-16T22:48:04.332Z,16.10
2023-04-16T22:50:31.930Z,15.73
2023-04-16T22:52:58.473Z,15.55
2023-04-16T22:55:25.005Z,15.63
2023-04-16T22:57:51.452Z,15.93
2023-04-16T23:00:18.306Z,15.65
2023-04-16T23:02:45.244Z,15.68
2023-04-16T23:05:12.119Z,16.15
2023-04-16T23:07:38.873Z,15.35
2023-04-16T23:10:06.136Z,16.00
2023-04-16T23:12:32.669Z,15.40
2023-04-16T23:15:00.520Z,15.57
2023-04-16T23:17:27.267Z,16.27
2023-04-16T23:19:53.906Z,14.93
2023-04-16T23:22:20.384Z,15.27
2023-04-16T23:24:46.923Z,14.80
2023-04-16T23:27:13.382Z,14.95
2023-04-16T23:29:39.851Z,14.65
2023-04-16T23:32:06.386Z,14.98
2023-04-16T23:34:32.871Z,15.27
2023-04-16T23:36:59.322Z,14.48
2023-04-16T23:39:26.098Z,14.43
2023-04-16T23:41:52.615Z,14.60
2023-04-16T23:44:19.156Z,14.13
2023-04-16T23:46:45.783Z,14.68
2023-04-16T23:49:12.400Z,14.00
2023-04-16T23:51:38.986Z,14.25
2023-04-16T23:54:05.564Z,14.50
2023-04-16T23:56:32.048Z,14.55
2023-04-16T23:58:58.613Z,14.70
